New Richmond, WI

08:45 PM CDT del 27 Marzo 2015 (GMT -0500)
Country View Ridge | | Change Station
CLOSE
Current Station
Stazione meteo personale
Location: New Richmond, WI
Altitudine: 971 ft
Stazioni meteo nelle vicinanze

Alt. 971 ft 45.10 °N, 92.60 °W | Updated 36 seconds ago

Clear
Sereno
27.3 °F
Sembra 27 °F
N
0.4
Vento Variabile Vento da SO
Gusts 2.5 mph

Oggi
Massima -- | Minima -- °F
--% Possibilità di precip.
Ieri
Massima -- | Minima -- °F
Precip. -- in
7:00 AM 7:31 PM
Primo quarto, 57% visible
Pressione 30.16 in
Visibilità 10.0 miglia
Nuvole Sereno
Raffreddamento del vento 27 °F
Punto di rugiada 10 °F
Umidità 48%
Piovosità 0.00 in
Spessore del manto nevoso Non disponibile.
Raggi UV 0.0 fuori da 12
Polline 1.00 fuori da 12
Qualità dell'aria Non disponibile.
Flu Activity Non disponibile.
METAR KRNH 280135Z AUTO 22005KT 10SM CLR M02/M11 A3016 RMK AO2 T10221109

More Conditions Fewer Conditions

Pressione 30.16 in
Visibilità 10.0 miglia
Nuvole Sereno
Raffreddamento del vento 27 °F
Punto di rugiada 10 °F
Umidità 48%
Piovosità 0.00 in
Spessore del manto nevoso Non disponibile.
Raggi UV 0.0 fuori da 12
Polline 1.00 fuori da 12
Qualità dell'aria Non disponibile.
Flu Activity Non disponibile.
METAR KRNH 280135Z AUTO 22005KT 10SM CLR M02/M11 A3016 RMK AO2 T10221109

More Conditions Fewer Conditions

10-Day Weather Forecast

Almanac

Astronomia

Mar. 27, 2015 Alba Tramonto
Ora attuale
Crepuscolo civile
Crepuscolo nautico
Crepuscolo astronomico
Luna
Estensione della luce visibile
Lunghezza del giorno
Tomorrow will be .
, % of the Moon is Illuminated

Gli estremi di oggi

State Highs State Lows

Community

WunderPhotos

Upload Photos

1,808,911 foto caricate!

WunderBlogs® & News

Nearby

Qualità dell'aria

  Qualità dell'aria Indice AQ Inquinante
Not available.

Profondità neve

Stazione Profondità Altitudine

Attività sismica

Città  Distanza Mag. Data & Ora
Minimo Magnitudo Mostrato è 2.5.

Temperature delle acque costiere

Località Temperatura

Stations

Stazioni meteo nelle vicinanze

Ubicazione della stazione Temp. Raffreddamento del vento Punto di rugiada Umidità Vento Precip. Alt. Aggiornato Tipo